Flight Track Log - Related Links

Times and Time Zones

All times are in EST time to prevent confusion due to time zone crossing. See the CAL260 flight status page for this flight to view local times or setup timezone preferences in your user account.

Time Position Orientation Groundspeed Altitude Reporting Facility
EST Latitude Longitude Course Direction KTS MPH feet Rate Location/Type
Sat 08:28:00 PM 25.3597 121.6585 18° North  Level Estimated
Sat 08:29:00 PM 25.4565 121.6942 18° North  Level Estimated
Sat 08:30:00 PM 25.5532 121.7300 18° North  Level Estimated
Sat 08:31:00 PM 25.6499 121.7659 18° North  Level Estimated
Sat 08:32:00 PM 25.7466 121.8018 18° North  Level Estimated
Sat 08:33:00 PM 25.8433 121.8377 19° North  Level Estimated
Sat 08:34:00 PM 25.9400 121.8737 19° North  Level Estimated
Sat 08:35:00 PM 26.0367 121.9098 19° North  Level Estimated
Sat 08:36:00 PM 26.1334 121.9460 19° North  Level Estimated
Sat 08:37:00 PM 26.2301 121.9822 19° North  Level Estimated
Sat 08:38:00 PM 26.3267 122.0184 19° North  Level Estimated
Sat 08:39:00 PM 26.4234 122.0547 19° North  Level Estimated
Sat 08:40:00 PM 26.5200 122.0911 19° North  Level Estimated
Sat 08:41:00 PM 26.6167 122.1276 19° North  Level Estimated
Sat 08:42:00 PM 26.7133 122.1641 19° North  Level Estimated
Sat 08:43:00 PM 26.8099 122.2006 19° North  Level Estimated
Sat 08:44:00 PM 26.9065 122.2373 19° North  Level Estimated
Sat 08:45:00 PM 27.0031 122.2739 19° North  Level Estimated
Sat 08:46:00 PM 27.0997 122.3107 19° North  Level Estimated
Sat 08:47:00 PM 27.1963 122.3475 19° North  Level Estimated
Sat 08:48:00 PM 27.2929 122.3844 19° North  Level Estimated
Sat 08:49:00 PM 27.3894 122.4213 19° North  Level Estimated
Sat 08:50:00 PM 27.4860 122.4584 19° North  Level Estimated
Sat 08:51:00 PM 27.5825 122.4954 19° North  Level Estimated
Sat 08:52:00 PM 27.6790 122.5326 19° North  Level Estimated
Sat 08:53:00 PM 27.7756 122.5698 19° North  Level Estimated
Sat 08:54:00 PM 27.8721 122.6070 19° North  Level Estimated
Sat 08:55:00 PM 27.9686 122.6444 19° North  Level Estimated
Sat 08:56:00 PM 28.0651 122.6818 19° North  Level Estimated
Sat 08:57:00 PM 28.1615 122.7192 19° North  Level Estimated
Sat 08:58:00 PM 28.2580 122.7568 19° North  Level Estimated
Sat 08:59:00 PM 28.3545 122.7944 19° North  Level Estimated
Sat 09:00:00 PM 28.4509 122.8321 19° North  Level Estimated
Sat 09:01:00 PM 28.5473 122.8698 19° North  Level Estimated
Sat 09:02:00 PM 28.6438 122.9076 19° North  Level Estimated
Sat 09:03:00 PM 28.7402 122.9455 19° North  Level Estimated
Sat 09:04:00 PM 28.8366 122.9835 19° North  Level Estimated
Sat 09:05:00 PM 28.9330 123.0215 19° North  Level Estimated
Sat 09:06:00 PM 29.0294 123.0596 19° North  Level Estimated
Sat 09:07:00 PM 29.1257 123.0977 19° North  Level Estimated
Sat 09:08:00 PM 29.2221 123.1360 19° North  Level Estimated
Sat 09:09:00 PM 29.3185 123.1743 19° North  Level Estimated
Sat 09:10:00 PM 29.4148 123.2127 19° North  Level Estimated
Sat 09:11:00 PM 29.5111 123.2511 19° North  Level Estimated
Sat 09:12:00 PM 29.6075 123.2896 19° North  Level Estimated
Sat 09:13:00 PM 29.7038 123.3282 19° North  Level Estimated
Sat 09:14:00 PM 29.8001 123.3669 19° North  Level Estimated
Sat 09:15:00 PM 29.8963 123.4057 19° North  Level Estimated
Sat 09:16:00 PM 29.9926 123.4445 19° North  Level Estimated
Sat 09:17:00 PM 30.0889 123.4834 19° North  Level Estimated
Sat 09:18:00 PM 30.1851 123.5224 19° North  Level Estimated
Sat 09:19:00 PM 30.2814 123.5614 19° North  Level Estimated
Sat 09:20:00 PM 30.3776 123.6005 19° North  Level Estimated
Sat 09:21:00 PM 30.4738 123.6398 19° North  Level Estimated
Sat 09:22:00 PM 30.5700 123.6790 19° North  Level Estimated
Sat 09:23:00 PM 30.6662 123.7184 19° North  Level Estimated
Sat 09:24:00 PM 30.7624 123.7578 19° North  Level Estimated
Sat 09:25:00 PM 30.8585 123.7974 19° North  Level Estimated
Sat 09:26:00 PM 30.9547 123.8370 19° North  Level Estimated
Sat 09:27:00 PM 31.0508 123.8766 19° North  Level Estimated
Sat 09:28:00 PM 31.1470 123.9164 19° North  Level Estimated
Sat 09:29:00 PM 31.2431 123.9562 20° North  Level Estimated
Sat 09:30:00 PM 31.3392 123.9962 20° North  Level Estimated
Sat 09:31:00 PM 31.4353 124.0362 20° North  Level Estimated
Sat 09:32:00 PM 31.5314 124.0762 20° North  Level Estimated
Sat 09:33:00 PM 31.6275 124.1164 20° North  Level Estimated
Sat 09:34:00 PM 31.7235 124.1567 20° North  Level Estimated
Sat 09:35:00 PM 31.8196 124.1970 20° North  Level Estimated
Sat 09:36:00 PM 31.9156 124.2374 20° North  Level Estimated
Sat 09:37:00 PM 32.0116 124.2779 20° North  Level Estimated
Sat 09:38:00 PM 32.1076 124.3185 20° North  Level Estimated
Sat 09:39:00 PM 32.2036 124.3592 20° North  Level Estimated
Sat 09:40:00 PM 32.2996 124.3999 20° North  Level Estimated
Sat 09:41:00 PM 32.3956 124.4408 20° North  Level Estimated
Sat 09:42:00 PM 32.4915 124.4817 20° North  Level Estimated
Sat 09:43:00 PM 32.5874 124.5227 20° North  Level Estimated
Sat 09:44:00 PM 32.6834 124.5638 20° North  Level Estimated
Sat 09:45:00 PM 32.7793 124.6050 20° North  Level Estimated
Sat 09:46:00 PM 32.8752 124.6463 20° North  Level Estimated
Sat 09:47:00 PM 32.9711 124.6877 20° North  Level Estimated
Sat 09:48:00 PM 33.0670 124.7291 20° North  Level Estimated
Sat 09:49:00 PM 33.1628 124.7707 20° North  Level Estimated
Sat 09:50:00 PM 33.2587 124.8123 20° North  Level Estimated
Sat 09:51:00 PM 33.3545 124.8541 20° North  Level Estimated
Sat 09:52:00 PM 33.4503 124.8959 20° North  Level Estimated
Sat 09:53:00 PM 33.5461 124.9378 20° North  Level Estimated
Sat 09:54:00 PM 33.6419 124.9798 20° North  Level Estimated
Sat 09:55:00 PM 33.7377 125.0219 20° North  Level Estimated
Sat 09:56:00 PM 33.8334 125.0641 20° North  Level Estimated
Sat 09:57:00 PM 33.9292 125.1064 20° North  Level Estimated
Sat 09:58:00 PM 34.0249 125.1488 20° North  Level Estimated
Sat 09:59:00 PM 34.1206 125.1913 20° North  Level Estimated
Sat 10:00:00 PM 34.2163 125.2339 20° North  Level Estimated
Sat 10:01:00 PM 34.3120 125.2766 20° North  Level Estimated
Sat 10:02:00 PM 34.4077 125.3194 20° North  Level Estimated
Sat 10:03:00 PM 34.5034 125.3622 20° North  Level Estimated
Sat 10:04:00 PM 34.5990 125.4052 20° North  Level Estimated
Sat 10:05:00 PM 34.6946 125.4483 20° North  Level Estimated
Sat 10:06:00 PM 34.7902 125.4914 20° North  Level Estimated
Sat 10:07:00 PM 34.8858 125.5347 20° North  Level Estimated
Sat 10:08:00 PM 34.9814 125.5781 20° North  Level Estimated
Sat 10:09:00 PM 35.0770 125.6215 20° North  Level Estimated
Sat 10:10:00 PM 35.1725 125.6651 20° North  Level Estimated
Sat 10:11:00 PM 35.2681 125.7088 20° North  Level Estimated
Sat 10:12:00 PM 35.3636 125.7526 20° North  Level Estimated
Sat 10:13:00 PM 35.4591 125.7965 21° North  Level Estimated
Sat 10:14:00 PM 35.5546 125.8405 21° North  Level Estimated
Sat 10:15:00 PM 35.6501 125.8846 21° North  Level Estimated
Sat 10:16:00 PM 35.7455 125.9288 21° North  Level Estimated
Sat 10:17:00 PM 35.8410 125.9731 21° North  Level Estimated
Sat 10:18:00 PM 35.9364 126.0175 21° North  Level Estimated
Sat 10:19:00 PM 36.0318 126.0620 21° North  Level Estimated
Sat 10:20:00 PM 36.1272 126.1066 21° North  Level Estimated
Sat 10:21:00 PM 36.2225 126.1514 21° North  Level Estimated
Sat 10:22:00 PM 36.3179 126.1962 21° North  Level Estimated
Sat 10:23:00 PM 36.4132 126.2412 21° North  Level Estimated
Sat 10:24:00 PM 36.5086 126.2862 21° North  Level Estimated
Sat 10:25:00 PM 36.6039 126.3314 21° North  Level Estimated
Sat 10:26:00 PM 36.6992 126.3767 21° North  Level Estimated
Sat 10:27:00 PM 36.7944 126.4221 21° North  Level Estimated
Sat 10:28:00 PM 36.8897 126.4676 21° North  Level Estimated
Sat 10:29:00 PM 36.9849 126.5133 21° North  Level Estimated
Sat 10:30:00 PM 37.0802 126.5590 21° North  Level Estimated
Sat 10:31:00 PM 37.1754 126.6049 21° North  Level Estimated
Sat 10:32:00 PM 37.2705 126.6508 21° North  Level Estimated
Sat 10:33:00 PM 37.3657 126.6969 21° North  Level Estimated

Login

Don't have an account? Register now (free) for customized features, flight alerts, and more!